Time;durP1;ratioP1;P1;durP2;ratioP2;P2;SDS_P1;SDS_P2;PMS_P1;PMS_P2;Temp;Humidity;BMP_temperature;BMP_pressure;BME280_temperature;BME280_humidity;BME280_pressure;Samples;Min_cycle;Max_cycle;Signal;HPM_P1;HPM_P2
2023/03/19 00:01:41;;;;;;;21.00;18.15;;;11.00;99.90;;;;;;5114682;28;20071;-58
2023/03/19 00:04:07;;;;;;;25.70;19.23;;;11.00;99.90;;;;;;5114066;28;20457;-58
2023/03/19 00:06:33;;;;;;;25.42;18.67;;;10.80;99.90;;;;;;5113858;28;20517;-58
2023/03/19 00:08:59;;;;;;;22.02;17.27;;;10.90;99.90;;;;;;5114039;28;20526;-58
2023/03/19 00:11:25;;;;;;;32.22;18.27;;;11.00;99.90;;;;;;5113766;28;20378;-58
2023/03/19 00:13:51;;;;;;;21.48;18.50;;;10.90;99.90;;;;;;5112442;28;20043;-59
2023/03/19 00:16:16;;;;;;;20.38;18.20;;;10.90;99.90;;;;;;5113028;28;20503;-58
2023/03/19 00:18:42;;;;;;;20.63;17.88;;;11.00;99.90;;;;;;5113778;28;20124;-58
2023/03/19 00:21:08;;;;;;;21.80;18.27;;;10.90;99.90;;;;;;5113843;28;20389;-58
2023/03/19 00:23:35;;;;;;;19.45;17.13;;;10.80;99.90;;;;;;5113720;28;20035;-58
2023/03/19 00:26:02;;;;;;;21.75;17.63;;;10.90;99.90;;;;;;5113706;28;20431;-58
2023/03/19 00:28:29;;;;;;;22.90;19.30;;;10.90;99.90;;;;;;5113898;28;20471;-58
2023/03/19 00:30:55;;;;;;;22.70;18.90;;;10.70;99.90;;;;;;5113603;28;20035;-58
2023/03/19 00:33:20;;;;;;;22.15;19.15;;;10.80;99.90;;;;;;5113388;28;20382;-59
2023/03/19 00:35:46;;;;;;;24.75;19.05;;;10.80;99.90;;;;;;5113579;28;20110;-59
2023/03/19 00:38:12;;;;;;;24.08;18.90;;;10.80;99.90;;;;;;5113640;28;20069;-58
2023/03/19 00:40:38;;;;;;;23.27;18.75;;;10.80;99.90;;;;;;5113384;28;20084;-59
2023/03/19 00:43:03;;;;;;;24.10;19.58;;;10.80;99.90;;;;;;5113155;28;20484;-58
2023/03/19 00:45:29;;;;;;;23.13;20.60;;;10.90;99.90;;;;;;5113499;28;20363;-58
2023/03/19 00:47:56;;;;;;;22.48;19.42;;;10.80;99.90;;;;;;5113249;28;20065;-58
2023/03/19 00:50:24;;;;;;;23.75;19.73;;;10.90;99.90;;;;;;5113383;28;20039;-59
2023/03/19 00:52:51;;;;;;;22.33;19.00;;;10.90;99.90;;;;;;5113497;28;20439;-58
2023/03/19 00:55:17;;;;;;;22.90;20.25;;;10.80;99.90;;;;;;5113305;28;20128;-59
2023/03/19 00:57:43;;;;;;;24.05;19.15;;;10.80;99.90;;;;;;5113490;28;20067;-59
2023/03/19 01:00:11;;;;;;;24.75;20.13;;;10.90;99.90;;;;;;5113105;28;20098;-59
2023/03/19 01:02:36;;;;;;;24.10;19.88;;;10.90;99.90;;;;;;5113505;28;20107;-58
2023/03/19 01:05:02;;;;;;;23.45;19.23;;;11.00;99.90;;;;;;5113478;28;20758;-58
2023/03/19 01:07:28;;;;;;;24.70;19.73;;;10.90;99.90;;;;;;5112607;28;20080;-58
2023/03/19 01:09:53;;;;;;;23.77;20.80;;;10.90;99.90;;;;;;5113178;28;20093;-58
2023/03/19 01:12:19;;;;;;;23.83;19.58;;;10.80;99.90;;;;;;5112948;28;20039;-58
2023/03/19 01:14:45;;;;;;;25.98;21.25;;;10.80;99.90;;;;;;5112970;28;20397;-58
2023/03/19 01:17:10;;;;;;;24.45;21.83;;;10.80;99.90;;;;;;5111780;28;20483;-58
2023/03/19 01:19:36;;;;;;;27.88;22.10;;;10.80;99.90;;;;;;5112832;28;20456;-58
2023/03/19 01:22:03;;;;;;;26.88;21.92;;;10.90;99.90;;;;;;5112867;28;20032;-58
2023/03/19 01:24:31;;;;;;;23.75;20.60;;;10.90;99.90;;;;;;5112592;28;20479;-58
2023/03/19 01:26:57;;;;;;;26.70;21.67;;;10.70;99.90;;;;;;5113003;28;20125;-58
2023/03/19 01:29:23;;;;;;;23.35;19.92;;;10.70;99.90;;;;;;5119201;28;20036;-58
2023/03/19 01:31:48;;;;;;;25.60;20.75;;;10.80;99.90;;;;;;5118350;28;20047;-58
2023/03/19 01:34:14;;;;;;;25.98;20.00;;;10.60;99.90;;;;;;5119092;28;20055;-58
2023/03/19 01:36:40;;;;;;;24.33;19.73;;;10.60;99.90;;;;;;5119523;28;20044;-58
2023/03/19 01:39:05;;;;;;;21.98;18.80;;;10.70;99.90;;;;;;5119177;28;20042;-58
2023/03/19 01:41:31;;;;;;;23.80;19.27;;;10.70;99.90;;;;;;5119623;27;20043;-58
2023/03/19 01:43:57;;;;;;;23.38;19.85;;;10.60;99.90;;;;;;5119280;28;20035;-58
2023/03/19 01:46:36;;;;;;;24.25;18.92;;;10.70;99.90;;;;;;5119202;28;20069;-58
2023/03/19 01:49:06;;;;;;;23.80;19.40;;;10.70;99.90;;;;;;5119324;27;20534;-58
2023/03/19 01:51:38;;;;;;;29.95;20.00;;;10.60;99.90;;;;;;5119517;27;20396;-58
2023/03/19 01:54:11;;;;;;;24.08;19.23;;;10.70;99.90;;;;;;5119517;27;20374;-58
2023/03/19 01:56:40;;;;;;;23.30;18.83;;;10.70;99.90;;;;;;5117867;28;20100;-58
2023/03/19 01:59:15;;;;;;;22.27;18.55;;;10.70;99.90;;;;;;5118031;28;20054;-57
2023/03/19 02:02:02;;;;;;;21.25;17.58;;;10.60;99.90;;;;;;5119201;27;20388;-59
2023/03/19 02:04:30;;;;;;;19.25;16.40;;;10.60;99.90;;;;;;5118886;27;20087;-59
2023/03/19 02:06:57;;;;;;;20.60;17.10;;;10.80;99.90;;;;;;5119236;27;20039;-58
2023/03/19 02:09:24;;;;;;;21.65;16.00;;;10.70;99.90;;;;;;5118890;27;20118;-58
2023/03/19 02:11:50;;;;;;;16.27;13.55;;;10.80;99.90;;;;;;5117776;28;20039;-58
2023/03/19 02:14:16;;;;;;;14.75;12.90;;;10.70;99.90;;;;;;5118864;27;20043;-58
2023/03/19 02:16:42;;;;;;;16.60;12.93;;;10.80;99.90;;;;;;5117615;28;20043;-58
2023/03/19 02:19:13;;;;;;;19.15;13.13;;;10.90;99.90;;;;;;5119188;28;20085;-58
2023/03/19 02:21:38;;;;;;;15.05;12.77;;;10.70;99.90;;;;;;5118890;27;20043;-58
2023/03/19 02:24:25;;;;;;;16.20;13.57;;;10.80;99.90;;;;;;5118762;27;20123;-59
2023/03/19 02:26:51;;;;;;;16.67;13.20;;;10.70;99.90;;;;;;5118972;27;20036;-58
2023/03/19 02:29:17;;;;;;;19.50;13.07;;;10.70;99.90;;;;;;5119125;27;20038;-58
2023/03/19 02:31:42;;;;;;;17.90;13.93;;;10.90;99.90;;;;;;5119235;28;20488;-58
2023/03/19 02:34:11;;;;;;;23.08;14.35;;;10.70;99.90;;;;;;5118477;28;20408;-58
2023/03/19 02:36:41;;;;;;;18.38;14.30;;;10.70;99.90;;;;;;5119092;28;20050;-58
2023/03/19 02:39:25;;;;;;;16.27;13.65;;;10.60;99.90;;;;;;5117529;27;20043;-59
2023/03/19 02:41:53;;;;;;;16.38;13.25;;;10.70;99.90;;;;;;5115525;28;20089;-59
2023/03/19 02:44:19;;;;;;;17.73;13.20;;;10.60;99.90;;;;;;5115655;28;20046;-59
2023/03/19 02:46:45;;;;;;;14.20;12.55;;;10.80;99.90;;;;;;5115439;28;20039;-59
2023/03/19 02:49:11;;;;;;;18.20;13.65;;;10.60;99.90;;;;;;5115677;27;20757;-58
2023/03/19 02:51:37;;;;;;;15.63;12.77;;;10.60;99.90;;;;;;5115392;28;20108;-60
2023/03/19 02:54:03;;;;;;;16.80;12.15;;;10.60;99.90;;;;;;5115309;28;20473;-58
2023/03/19 02:56:29;;;;;;;18.38;12.50;;;10.70;99.90;;;;;;5115387;28;20040;-58
2023/03/19 02:58:54;;;;;;;13.65;12.02;;;10.60;99.90;;;;;;5115333;28;20401;-61
2023/03/19 03:01:20;;;;;;;13.93;11.05;;;10.70;99.90;;;;;;5115415;28;20053;-60
2023/03/19 03:03:46;;;;;;;15.70;11.50;;;10.70;99.90;;;;;;5115255;28;20044;-59
2023/03/19 03:06:12;;;;;;;14.45;11.25;;;10.60;99.90;;;;;;5114989;28;20431;-59
2023/03/19 03:08:38;;;;;;;16.00;11.85;;;10.70;99.90;;;;;;5114133;28;20039;-59
2023/03/19 03:11:04;;;;;;;13.00;9.30;;;10.60;99.90;;;;;;5115235;28;20088;-58
2023/03/19 03:13:30;;;;;;;10.27;9.13;;;10.70;99.90;;;;;;5115389;28;20518;-58
2023/03/19 03:15:55;;;;;;;12.10;9.07;;;10.60;99.90;;;;;;5115082;28;20046;-58
2023/03/19 03:18:21;;;;;;;11.40;9.68;;;10.70;99.90;;;;;;5114873;28;20035;-59
2023/03/19 03:20:47;;;;;;;9.93;8.75;;;10.50;99.90;;;;;;5115135;28;20381;-58
2023/03/19 03:23:13;;;;;;;9.18;7.93;;;10.50;99.90;;;;;;5115041;27;20036;-58
2023/03/19 03:25:39;;;;;;;10.35;8.27;;;10.60;99.90;;;;;;5114618;28;20092;-58
2023/03/19 03:28:05;;;;;;;11.88;8.57;;;10.50;99.90;;;;;;5114352;28;20032;-58
2023/03/19 03:30:30;;;;;;;10.82;8.00;;;10.60;99.90;;;;;;5114552;28;20032;-58
2023/03/19 03:32:56;;;;;;;8.43;7.50;;;10.70;99.90;;;;;;5114597;28;20039;-58
2023/03/19 03:35:22;;;;;;;9.77;7.25;;;10.70;99.90;;;;;;5114184;28;20070;-58
2023/03/19 03:37:49;;;;;;;10.50;7.18;;;10.70;99.90;;;;;;5114580;28;20389;-58
2023/03/19 03:40:16;;;;;;;9.35;7.53;;;10.70;99.90;;;;;;5114441;28;20063;-58
2023/03/19 03:42:42;;;;;;;9.15;7.25;;;10.50;99.90;;;;;;5114244;28;20047;-58
2023/03/19 03:45:09;;;;;;;8.68;7.30;;;10.50;99.90;;;;;;5114221;28;20040;-58
2023/03/19 03:47:36;;;;;;;10.45;7.32;;;10.70;99.90;;;;;;5114555;28;20036;-58
2023/03/19 03:50:04;;;;;;;10.68;7.90;;;10.60;99.90;;;;;;5114056;28;20470;-58
2023/03/19 03:52:32;;;;;;;15.32;8.35;;;10.70;99.90;;;;;;5113822;28;20530;-58
2023/03/19 03:54:58;;;;;;;10.05;6.93;;;10.70;99.90;;;;;;5112824;28;20052;-58
2023/03/19 03:57:24;;;;;;;10.68;7.07;;;10.60;99.90;;;;;;5113830;28;20040;-58
2023/03/19 03:59:50;;;;;;;8.40;6.85;;;10.60;99.90;;;;;;5114111;28;20076;-58
2023/03/19 04:02:16;;;;;;;12.05;7.03;;;10.60;99.90;;;;;;5114139;28;20070;-58
2023/03/19 04:04:42;;;;;;;9.48;7.35;;;10.50;99.90;;;;;;5113920;28;20044;-58
2023/03/19 04:07:07;;;;;;;8.32;6.75;;;10.60;99.90;;;;;;5114184;28;20035;-58
2023/03/19 04:09:33;;;;;;;7.93;7.13;;;10.70;99.90;;;;;;5113986;28;20392;-59
2023/03/19 04:11:59;;;;;;;8.35;7.40;;;10.50;99.90;;;;;;5114077;27;20114;-59
2023/03/19 04:14:25;;;;;;;7.28;6.32;;;10.60;99.90;;;;;;5112500;28;20055;-58
2023/03/19 04:16:51;;;;;;;7.85;6.55;;;10.60;99.90;;;;;;5114270;28;20043;-58
2023/03/19 04:19:18;;;;;;;7.32;6.20;;;10.70;99.90;;;;;;5114031;28;20047;-58
2023/03/19 04:21:44;;;;;;;9.35;6.38;;;10.70;99.90;;;;;;5114318;28;20047;-58
2023/03/19 04:24:10;;;;;;;9.40;7.35;;;10.80;99.90;;;;;;5113522;28;20058;-58
2023/03/19 04:26:36;;;;;;;8.07;6.38;;;10.70;99.90;;;;;;5113726;28;20114;-58
2023/03/19 04:29:02;;;;;;;6.78;6.07;;;10.70;99.90;;;;;;5113744;28;20089;-58
2023/03/19 04:31:28;;;;;;;9.07;6.38;;;10.50;99.90;;;;;;5113491;28;20043;-58
2023/03/19 04:33:54;;;;;;;9.02;5.90;;;10.50;99.90;;;;;;5113217;28;20047;-58
2023/03/19 04:36:20;;;;;;;10.25;6.35;;;10.70;99.90;;;;;;5113484;28;20040;-58
2023/03/19 04:38:45;;;;;;;9.35;5.68;;;10.70;99.90;;;;;;5113577;28;20392;-58
2023/03/19 04:41:12;;;;;;;9.68;6.18;;;10.50;99.90;;;;;;5113525;28;20039;-58
2023/03/19 04:43:38;;;;;;;6.85;5.20;;;10.60;99.90;;;;;;5112908;28;20107;-58
2023/03/19 04:46:06;;;;;;;6.85;6.20;;;10.70;99.90;;;;;;5112781;28;20114;-58
2023/03/19 04:48:34;;;;;;;8.65;6.22;;;10.70;99.90;;;;;;5113470;28;20040;-58
2023/03/19 04:51:02;;;;;;;8.88;6.53;;;10.60;99.90;;;;;;5113125;28;20047;-58
2023/03/19 04:53:28;;;;;;;9.03;6.20;;;10.70;99.90;;;;;;5113178;28;20092;-58
2023/03/19 04:55:55;;;;;;;7.95;5.80;;;10.80;99.90;;;;;;5112829;28;20481;-59
2023/03/19 04:58:21;;;;;;;9.45;6.07;;;10.60;99.90;;;;;;5113182;28;20388;-58
2023/03/19 05:00:47;;;;;;;8.77;6.25;;;10.70;99.90;;;;;;5113040;28;20039;-58
2023/03/19 05:03:14;;;;;;;6.95;6.25;;;10.70;99.90;;;;;;5112117;28;20046;-58
2023/03/19 05:05:40;;;;;;;8.57;6.55;;;10.60;99.90;;;;;;5111362;28;20036;-58
2023/03/19 05:08:07;;;;;;;7.47;6.30;;;10.50;99.90;;;;;;5113135;28;20042;-61
2023/03/19 05:10:34;;;;;;;8.30;6.60;;;10.70;99.90;;;;;;5113082;28;20393;-58
2023/03/19 05:12:59;;;;;;;8.07;6.55;;;10.70;99.90;;;;;;5113111;28;20043;-58
2023/03/19 05:15:25;;;;;;;8.05;7.25;;;10.50;99.90;;;;;;5112564;28;20473;-59
2023/03/19 05:17:50;;;;;;;8.38;7.15;;;10.40;99.90;;;;;;5112711;28;20089;-58
2023/03/19 05:20:16;;;;;;;10.50;7.50;;;10.50;99.90;;;;;;5112665;28;20071;-58
2023/03/19 05:22:42;;;;;;;8.32;7.28;;;10.40;99.90;;;;;;5112569;28;20047;-58
2023/03/19 05:25:08;;;;;;;11.52;8.07;;;10.40;99.90;;;;;;5112650;28;20042;-58
2023/03/19 05:27:34;;;;;;;10.02;7.40;;;10.30;99.90;;;;;;5112666;28;20039;-58
2023/03/19 05:30:00;;;;;;;8.93;7.60;;;10.30;99.90;;;;;;5113089;28;20435;-58
2023/03/19 05:32:26;;;;;;;9.18;6.80;;;10.40;99.90;;;;;;5112798;28;20488;-58
2023/03/19 05:34:52;;;;;;;7.95;7.13;;;10.30;99.90;;;;;;5112658;28;20051;-58
2023/03/19 05:37:18;;;;;;;8.40;7.07;;;10.40;99.90;;;;;;5112732;28;20042;-58
2023/03/19 05:39:43;;;;;;;8.57;7.53;;;10.20;99.90;;;;;;5112311;28;20123;-57
2023/03/19 05:42:09;;;;;;;11.20;7.47;;;10.30;99.90;;;;;;5112757;28;20043;-58
2023/03/19 05:44:35;;;;;;;8.13;6.57;;;10.20;99.90;;;;;;5112486;28;20039;-58
2023/03/19 05:47:01;;;;;;;8.82;6.80;;;10.20;99.90;;;;;;5112765;28;20032;-58
2023/03/19 05:49:27;;;;;;;12.02;6.32;;;10.20;99.90;;;;;;5110919;28;20127;-58
2023/03/19 05:51:52;;;;;;;8.00;6.28;;;10.00;99.90;;;;;;5112297;28;20038;-58
2023/03/19 05:54:18;;;;;;;7.20;5.97;;;9.90;99.90;;;;;;5112597;28;20088;-58
2023/03/19 05:56:44;;;;;;;7.00;5.55;;;10.00;99.90;;;;;;5112274;28;20043;-58
2023/03/19 05:59:09;;;;;;;9.52;5.60;;;9.90;99.90;;;;;;5112121;28;20036;-58
2023/03/19 06:01:35;;;;;;;8.07;6.45;;;9.90;99.90;;;;;;5110945;28;20059;-58
2023/03/19 06:04:01;;;;;;;8.50;6.20;;;9.80;99.90;;;;;;5112075;28;20036;-58
2023/03/19 06:06:26;;;;;;;7.50;5.82;;;9.80;99.90;;;;;;5112555;28;20036;-58
2023/03/19 06:08:52;;;;;;;7.75;5.70;;;9.70;99.90;;;;;;5112536;28;20046;-58
2023/03/19 06:11:18;;;;;;;9.48;6.25;;;9.80;99.90;;;;;;5112727;28;20524;-58
2023/03/19 06:13:45;;;;;;;7.88;5.97;;;9.70;99.90;;;;;;5112123;28;20101;-58
2023/03/19 06:16:11;;;;;;;7.38;6.30;;;9.70;99.90;;;;;;5115066;28;20118;-58
2023/03/19 06:18:37;;;;;;;10.20;6.28;;;9.80;99.90;;;;;;5116239;28;20385;-58
2023/03/19 06:21:03;;;;;;;8.15;6.78;;;9.70;99.90;;;;;;5115833;28;20038;-58
2023/03/19 06:23:29;;;;;;;6.82;6.10;;;9.90;99.90;;;;;;5115760;27;20035;-58
2023/03/19 06:25:55;;;;;;;7.60;6.70;;;10.00;99.90;;;;;;5115906;28;20463;-58
2023/03/19 06:28:21;;;;;;;7.43;6.65;;;10.10;99.90;;;;;;5116119;28;20385;-58
2023/03/19 06:30:46;;;;;;;8.52;6.20;;;10.00;99.90;;;;;;5115968;28;20032;-58
2023/03/19 06:33:13;;;;;;;7.95;6.97;;;10.00;99.90;;;;;;5115573;28;20035;-58
2023/03/19 06:35:39;;;;;;;9.90;6.53;;;10.10;99.90;;;;;;5115514;28;20043;-58
2023/03/19 06:38:06;;;;;;;10.13;7.03;;;10.10;99.90;;;;;;5115563;28;20511;-58
2023/03/19 06:40:32;;;;;;;11.43;7.38;;;10.00;99.90;;;;;;5113726;28;20039;-58
2023/03/19 06:42:57;;;;;;;7.68;6.65;;;10.10;99.90;;;;;;5095311;28;20116;-58
2023/03/19 06:45:23;;;;;;;8.65;6.68;;;10.10;99.90;;;;;;5095140;28;20051;-58
2023/03/19 06:47:49;;;;;;;8.02;6.93;;;10.10;99.90;;;;;;5094910;28;20040;-58
2023/03/19 06:50:16;;;;;;;8.85;7.18;;;10.30;99.90;;;;;;5094965;28;20051;-58
2023/03/19 06:52:43;;;;;;;9.48;7.47;;;10.30;99.90;;;;;;5095180;28;20032;-58
2023/03/19 06:55:10;;;;;;;7.95;6.32;;;10.20;99.90;;;;;;5095200;28;20036;-58
2023/03/19 06:57:36;;;;;;;8.23;6.75;;;10.20;99.90;;;;;;5100775;28;20039;-58
2023/03/19 07:00:03;;;;;;;8.82;6.90;;;10.30;99.90;;;;;;5115243;28;20036;-58
2023/03/19 07:02:28;;;;;;;8.57;6.78;;;10.40;99.90;;;;;;5115072;28;20089;-58
2023/03/19 07:04:54;;;;;;;9.45;6.82;;;10.40;99.90;;;;;;5115111;28;20043;-58
2023/03/19 07:07:20;;;;;;;11.40;6.70;;;10.40;99.90;;;;;;5115330;28;20115;-58
2023/03/19 07:09:45;;;;;;;10.63;6.30;;;10.60;99.90;;;;;;5115288;28;20116;-58
2023/03/19 07:12:11;;;;;;;7.47;6.55;;;10.60;99.90;;;;;;5115357;28;20043;-58
2023/03/19 07:14:37;;;;;;;7.03;5.72;;;10.60;99.90;;;;;;5114839;28;20039;-59
2023/03/19 07:17:02;;;;;;;8.20;6.45;;;10.80;99.90;;;;;;5115040;28;20043;-59
2023/03/19 07:19:28;;;;;;;9.35;6.72;;;10.90;99.90;;;;;;5114780;28;20035;-58
2023/03/19 07:21:54;;;;;;;7.07;6.25;;;11.10;99.90;;;;;;5113652;28;20039;-59
2023/03/19 07:24:19;;;;;;;9.18;7.10;;;11.20;99.90;;;;;;5114934;28;20422;-59
2023/03/19 07:26:46;;;;;;;7.45;6.55;;;11.20;99.90;;;;;;5112135;28;20035;-58
2023/03/19 07:29:12;;;;;;;7.65;6.80;;;11.40;99.90;;;;;;5094129;28;20520;-58
2023/03/19 07:31:38;;;;;;;7.38;6.65;;;11.70;99.90;;;;;;5094255;28;20036;-58
2023/03/19 07:34:04;;;;;;;8.75;6.72;;;11.90;99.90;;;;;;5093847;28;20063;-58
2023/03/19 07:36:31;;;;;;;7.78;6.97;;;12.20;99.90;;;;;;5094109;28;20071;-58
2023/03/19 07:38:56;;;;;;;7.50;6.55;;;12.40;99.90;;;;;;5094057;28;20044;-58
2023/03/19 07:41:22;;;;;;;8.93;8.02;;;12.70;99.90;;;;;;5094050;28;20123;-58
2023/03/19 07:43:48;;;;;;;9.70;7.13;;;12.70;99.90;;;;;;5093952;28;20593;-59
2023/03/19 07:46:14;;;;;;;9.38;8.05;;;12.80;99.90;;;;;;5094049;28;20113;-58
2023/03/19 07:48:40;;;;;;;9.95;8.27;;;12.70;99.90;;;;;;5093680;28;20474;-58
2023/03/19 07:51:06;;;;;;;9.65;8.38;;;12.70;99.90;;;;;;5093718;28;20036;-61
2023/03/19 07:53:32;;;;;;;8.77;7.80;;;12.90;99.90;;;;;;5093915;28;20040;-58
2023/03/19 07:55:57;;;;;;;12.45;9.57;;;13.10;99.90;;;;;;5093939;28;20044;-59
2023/03/19 07:58:23;;;;;;;9.93;8.93;;;13.20;99.90;;;;;;5094079;28;20061;-59
2023/03/19 08:00:49;;;;;;;11.65;9.55;;;13.20;99.90;;;;;;5093934;28;20040;-58
2023/03/19 08:03:15;;;;;;;12.75;10.65;;;13.30;99.90;;;;;;5092246;28;20146;-58
2023/03/19 08:05:40;;;;;;;14.65;11.30;;;13.20;99.90;;;;;;5093267;28;20482;-58
2023/03/19 08:08:06;;;;;;;13.50;11.80;;;13.20;99.90;;;;;;5093530;28;20421;-58
2023/03/19 08:10:32;;;;;;;14.20;11.95;;;13.20;99.90;;;;;;5092340;28;20024;-58
2023/03/19 08:12:58;;;;;;;13.45;11.52;;;13.20;99.90;;;;;;5092434;28;20538;-59
2023/03/19 08:15:23;;;;;;;16.55;12.13;;;13.10;99.90;;;;;;5093130;28;20574;-58
2023/03/19 08:17:56;;;;;;;16.25;11.85;;;13.00;99.90;;;;;;5093329;28;20509;-58
2023/03/19 08:20:22;;;;;;;15.95;12.43;;;13.20;99.90;;;;;;5093610;28;20044;-58
2023/03/19 08:22:49;;;;;;;16.15;12.50;;;13.30;99.90;;;;;;5093672;28;20039;-58
2023/03/19 08:25:15;;;;;;;13.68;12.20;;;13.70;99.90;;;;;;5093093;28;20036;-60
2023/03/19 08:27:41;;;;;;;17.05;13.05;;;14.00;99.90;;;;;;5093239;28;20043;-60
2023/03/19 08:30:08;;;;;;;14.82;12.65;;;14.10;99.90;;;;;;5093022;28;20142;-59
2023/03/19 08:32:35;;;;;;;17.60;14.73;;;14.00;99.90;;;;;;5091448;28;20040;-58
2023/03/19 08:35:00;;;;;;;15.65;13.52;;;13.90;99.90;;;;;;5092584;28;20545;-61
2023/03/19 08:37:26;;;;;;;16.77;12.55;;;13.60;99.90;;;;;;5092442;28;20178;-60
2023/03/19 08:39:52;;;;;;;15.85;13.63;;;13.30;99.90;;;;;;5091698;28;20092;-60
2023/03/19 08:42:18;;;;;;;16.30;13.68;;;13.10;99.90;;;;;;5091612;28;20106;-59
2023/03/19 08:44:44;;;;;;;17.20;13.88;;;13.00;99.90;;;;;;5092982;28;20044;-59
2023/03/19 08:47:11;;;;;;;17.90;14.20;;;12.80;99.90;;;;;;5093145;28;20062;-60
2023/03/19 08:49:37;;;;;;;14.73;12.95;;;12.80;99.90;;;;;;5093152;28;20079;-59
2023/03/19 08:52:03;;;;;;;16.52;12.95;;;12.90;99.90;;;;;;5092948;28;20039;-59
2023/03/19 08:54:29;;;;;;;19.40;12.90;;;12.80;99.90;;;;;;5092809;28;20113;-61
2023/03/19 08:56:54;;;;;;;14.02;12.52;;;12.80;99.90;;;;;;5093080;28;20040;-60
2023/03/19 08:59:20;;;;;;;14.30;12.75;;;12.70;99.90;;;;;;5092964;28;20040;-60
2023/03/19 09:01:50;;;;;;;13.57;11.73;;;12.80;99.90;;;;;;5093035;28;20068;-60
2023/03/19 09:04:16;;;;;;;14.05;12.02;;;12.80;99.90;;;;;;5092685;28;20076;-60
2023/03/19 09:06:42;;;;;;;14.30;11.75;;;12.80;99.90;;;;;;5092900;28;20072;-60
2023/03/19 09:09:08;;;;;;;15.40;12.38;;;12.80;99.90;;;;;;5092434;28;20054;-60
2023/03/19 09:11:33;;;;;;;14.65;11.57;;;12.80;99.90;;;;;;5092828;28;20048;-60
2023/03/19 09:13:59;;;;;;;13.88;12.27;;;12.80;99.90;;;;;;5093090;28;20050;-61
2023/03/19 09:16:25;;;;;;;14.35;11.40;;;12.70;99.90;;;;;;5092591;28;20119;-60
2023/03/19 09:18:50;;;;;;;13.20;11.70;;;12.80;99.90;;;;;;5092259;28;20047;-59
2023/03/19 09:21:16;;;;;;;15.10;12.70;;;12.80;99.90;;;;;;5092386;28;20527;-60
2023/03/19 09:23:42;;;;;;;12.48;10.60;;;12.70;99.90;;;;;;5092303;28;20039;-60
2023/03/19 09:26:08;;;;;;;14.00;10.07;;;12.80;99.90;;;;;;5092231;28;20032;-59
2023/03/19 09:28:35;;;;;;;13.63;11.10;;;12.80;99.90;;;;;;5092566;28;20391;-60
2023/03/19 09:31:05;;;;;;;13.23;10.95;;;12.70;99.90;;;;;;5092509;28;20111;-60
2023/03/19 09:33:31;;;;;;;13.82;9.98;;;12.60;99.90;;;;;;5090838;28;20097;-60
2023/03/19 09:35:57;;;;;;;14.60;10.95;;;12.50;99.90;;;;;;5092027;28;20040;-60
2023/03/19 09:38:23;;;;;;;17.48;11.23;;;12.60;99.90;;;;;;5092467;28;20050;-59
2023/03/19 09:41:14;;;;;;;15.93;11.98;;;12.60;99.90;;;;;;5092612;28;20047;-59
2023/03/19 09:44:03;;;;;;;14.40;10.82;;;12.60;99.90;;;;;;5092470;28;20078;-59
2023/03/19 09:46:52;;;;;;;11.07;9.68;;;12.70;99.90;;;;;;5092362;28;20043;-60
2023/03/19 09:49:22;;;;;;;14.68;10.93;;;12.70;99.90;;;;;;5094058;28;20040;-60
2023/03/19 09:51:57;;;;;;;11.75;10.05;;;12.90;99.90;;;;;;5096378;28;20036;-59
2023/03/19 09:54:26;;;;;;;14.10;10.32;;;12.90;99.90;;;;;;5096302;28;20047;-60
2023/03/19 09:56:52;;;;;;;;;;;13.00;99.90;;;;;;5096666;28;20450;-58
2023/03/19 09:59:20;;;;;;;13.68;9.77;;;12.80;99.90;;;;;;5096137;28;19967;-59
2023/03/19 10:01:54;;;;;;;12.55;10.48;;;12.80;99.90;;;;;;5096373;28;20449;-60
2023/03/19 10:04:39;;;;;;;14.07;11.27;;;12.70;99.90;;;;;;5096042;28;20040;-59
2023/03/19 10:07:13;;;;;;;13.93;10.85;;;12.80;99.90;;;;;;5096104;28;20089;-60
2023/03/19 10:10:21;;;;;;;12.63;10.45;;;12.70;99.90;;;;;;5096043;28;20125;-60
2023/03/19 10:13:11;;;;;;;12.60;10.52;;;12.80;99.90;;;;;;5016893;28;20096;-61
2023/03/19 10:15:39;;;;;;;14.45;10.68;;;12.70;99.90;;;;;;5033626;28;20049;-60
2023/03/19 10:18:23;;;;;;;13.25;10.85;;;12.80;99.90;;;;;;5033261;28;20045;-60
2023/03/19 10:21:03;;;;;;;14.73;11.43;;;12.80;99.90;;;;;;5033344;28;20110;-60
2023/03/19 10:23:56;;;;;;;14.77;11.10;;;12.80;99.90;;;;;;5033308;28;20096;-61
2023/03/19 10:26:29;;;;;;;13.15;10.90;;;12.80;99.90;;;;;;5016229;28;20049;-60
2023/03/19 10:29:05;;;;;;;13.50;11.38;;;12.80;99.90;;;;;;5033389;28;20613;-61
2023/03/19 10:31:54;;;;;;;12.45;10.75;;;12.80;99.90;;;;;;5033115;28;20060;-60
2023/03/19 10:34:32;;;;;;;13.65;10.63;;;12.70;99.90;;;;;;5033011;28;20057;-61
2023/03/19 10:37:12;;;;;;;12.35;10.80;;;12.70;99.90;;;;;;5033123;28;20053;-61
2023/03/19 10:39:41;;;;;;;13.70;10.50;;;12.70;99.90;;;;;;5032806;28;20041;-60
2023/03/19 10:42:20;;;;;;;14.82;10.60;;;12.70;99.90;;;;;;5032926;28;20103;-60
2023/03/19 10:44:50;;;;;;;15.10;11.15;;;12.60;99.90;;;;;;5016213;28;20037;-60
2023/03/19 10:47:18;;;;;;;14.52;11.25;;;12.60;99.90;;;;;;5032962;28;20045;-61
2023/03/19 10:49:43;;;;;;;13.00;10.25;;;12.70;99.90;;;;;;5072347;28;20397;-62
2023/03/19 10:52:29;;;;;;;13.32;10.80;;;12.70;99.90;;;;;;5095329;28;20115;-59
2023/03/19 10:55:03;;;;;;;14.52;10.95;;;12.80;99.90;;;;;;5094821;28;20485;-61
2023/03/19 10:57:30;;;;;;;15.50;12.63;;;12.80;99.90;;;;;;5095133;28;20047;-61
2023/03/19 11:00:04;;;;;;;16.85;12.68;;;12.70;99.90;;;;;;5094882;28;20078;-60
2023/03/19 11:02:31;;;;;;;13.60;11.82;;;12.80;99.90;;;;;;5094676;28;20493;-61
2023/03/19 11:05:07;;;;;;;14.90;11.98;;;12.70;99.90;;;;;;5095095;28;20044;-60
2023/03/19 11:07:36;;;;;;;16.83;12.82;;;12.60;99.90;;;;;;5095308;28;20039;-60
2023/03/19 11:10:01;;;;;;;15.20;12.55;;;12.70;99.90;;;;;;5094940;28;20036;-60
2023/03/19 11:12:33;;;;;;;14.20;12.38;;;12.50;99.90;;;;;;5095089;28;20377;-59
2023/03/19 11:15:01;;;;;;;14.20;12.43;;;12.40;99.90;;;;;;5094737;28;20036;-60
2023/03/19 11:18:00;;;;;;;16.08;13.00;;;12.30;99.90;;;;;;5094500;28;20498;-60
2023/03/19 11:20:35;;;;;;;17.15;13.45;;;12.20;99.90;;;;;;5094862;28;20101;-60
2023/03/19 11:23:06;;;;;;;15.23;13.57;;;12.10;99.90;;;;;;5094469;28;20169;-61
2023/03/19 11:25:40;;;;;;;15.48;13.23;;;12.10;99.90;;;;;;5094491;28;20047;-61
2023/03/19 11:28:08;;;;;;;16.08;13.18;;;12.00;99.90;;;;;;5094510;28;20036;-62
2023/03/19 11:30:48;;;;;;;16.75;13.82;;;12.00;99.90;;;;;;5094766;28;20123;-59
2023/03/19 11:33:20;;;;;;;16.55;13.65;;;12.00;99.90;;;;;;5094319;28;20039;-60
2023/03/19 11:35:57;;;;;;;15.93;13.07;;;12.10;99.90;;;;;;5093984;28;20521;-60
2023/03/19 11:38:36;;;;;;;18.70;14.40;;;12.20;99.90;;;;;;5094162;28;20061;-60
2023/03/19 11:41:24;;;;;;;17.02;14.75;;;12.30;99.90;;;;;;5093134;28;20043;-60
2023/03/19 11:43:56;;;;;;;18.88;15.00;;;12.40;99.90;;;;;;5094097;28;20096;-60
2023/03/19 11:46:38;;;;;;;19.92;15.52;;;12.40;99.90;;;;;;5094108;28;20040;-59
2023/03/19 11:49:42;;;;;;;19.20;13.70;;;12.40;99.90;;;;;;5094389;28;20040;-60
2023/03/19 11:52:13;;;;;;;15.48;13.35;;;12.40;99.90;;;;;;5031485;28;20049;-60
2023/03/19 11:55:03;;;;;;;16.95;14.20;;;12.50;99.90;;;;;;5031665;28;20878;-59
2023/03/19 11:58:06;;;;;;;17.92;13.80;;;12.50;99.90;;;;;;5031240;28;20053;-60
2023/03/19 12:00:45;;;;;;;16.15;12.48;;;12.40;99.90;;;;;;5031432;28;20439;-59
2023/03/19 12:03:20;;;;;;;16.13;13.30;;;12.20;99.90;;;;;;5030934;28;20180;-60
2023/03/19 12:06:16;;;;;;;19.45;13.90;;;12.10;99.90;;;;;;5031252;28;20048;-59
2023/03/19 12:08:55;;;;;;;17.52;13.57;;;12.10;99.90;;;;;;5031119;28;20049;-59
2023/03/19 12:11:29;;;;;;;15.52;13.18;;;12.10;99.90;;;;;;5031058;28;20037;-58
2023/03/19 12:14:30;;;;;;;19.60;14.95;;;12.10;99.90;;;;;;5031198;28;20045;-60
2023/03/19 12:17:13;;;;;;;20.35;14.75;;;12.30;99.90;;;;;;5031144;28;20107;-60
2023/03/19 12:19:48;;;;;;;22.00;15.15;;;12.40;99.90;;;;;;5031015;28;20045;-60
2023/03/19 12:22:35;;;;;;;21.05;16.55;;;12.30;99.90;;;;;;5030919;28;20545;-59
2023/03/19 12:25:20;;;;;;;22.85;16.55;;;12.20;99.90;;;;;;5030902;28;20488;-60
2023/03/19 12:28:12;;;;;;;20.95;17.17;;;12.20;99.90;;;;;;5013883;28;20073;-59
2023/03/19 12:30:42;;;;;;;23.20;17.38;;;12.20;99.90;;;;;;5093380;28;20529;-59
2023/03/19 12:33:39;;;;;;;22.98;17.00;;;12.20;99.90;;;;;;5092371;28;20040;-60
2023/03/19 12:36:12;;;;;;;21.58;16.08;;;12.30;99.90;;;;;;5093206;28;20048;-59
2023/03/19 12:38:48;;;;;;;21.20;16.58;;;12.10;99.90;;;;;;5091969;28;20130;-60
2023/03/19 12:41:21;;;;;;;21.83;16.80;;;12.20;99.90;;;;;;5093282;28;20450;-59
2023/03/19 12:44:02;;;;;;;21.58;16.20;;;12.10;99.90;;;;;;5093201;28;20043;-62
2023/03/19 12:46:31;;;;;;;22.40;16.67;;;12.00;99.90;;;;;;5092999;28;20051;-61